Flight Track Log - Related Links

Times and Time Zones

All times are in EDT time to prevent confusion due to time zone crossing. See the SWA1802 flight status page for this flight to view local times or setup timezone preferences in your user account.


Time Position Orientation Groundspeed Altitude Reporting Facility
EDT Latitude Longitude Course Direction KTS MPH feet Rate Location/Type
Fri 07:28:48 PM 41.7833 -87.6667 346° North 206 237 2,900  Level Chicago TRACON
Fri 07:29:53 PM 41.8036 -87.5886 71° East 237 273 3,800 1,134 Climbing Chicago Center
Fri 07:30:55 PM 41.8614 -87.5325 36° Northeast 262 302 5,300 1,065 Climbing Chicago Center
Fri 07:31:57 PM 41.9225 -87.4706 37° Northeast 272 313 6,000 339 Climbing Chicago Center
Fri 07:32:59 PM 41.9939 -87.4717 359° North 286 329 6,000 774 Level Chicago Center
Fri 07:34:00 PM 42.4149 -87.9938 346° North  Level FlightAware Approximate
Fri 07:34:01 PM 42.0525 -87.5636 311° West 280 322 7,600  Level Chicago Center
Fri 07:36:06 PM 42.0894 -87.7592 284° West 292 336 12,500 2,150 Climbing Chicago Center
Fri 07:37:08 PM 42.1689 -87.7825 348° North 314 361 14,300 1,500 Climbing Chicago Center
Fri 07:38:10 PM 42.2672 -87.7819 360° North 349 402 15,600 1,839 Climbing Chicago Center
Fri 07:39:12 PM 42.3919 -87.7814 360° North 381 438 18,100 2,371 Climbing Chicago Center
Fri 07:40:14 PM 42.5006 -87.7992 353° North 391 450 20,500 2,177 Climbing Chicago Center
Fri 07:41:16 PM 42.5933 -87.8733 330° Northwest 388 447 22,600 1,839 Climbing Chicago Center
Fri 07:42:18 PM 42.6886 -87.9481 330° Northwest 392 451 24,300 1,500 Climbing Chicago Center
Fri 07:43:20 PM 42.8031 -88.0389 330° Northwest 404 465 25,700 1,306 Climbing Chicago Center
Fri 07:44:22 PM 42.9053 -88.1186 330° Northwest 418 481 27,000 1,355 Climbing Chicago Center
Fri 07:45:24 PM 42.9831 -88.2333 313° West 424 488 28,500 1,500 Climbing Chicago Center
Fri 07:46:26 PM 42.9850 -88.3983 271° West 429 494 30,100 1,403 Climbing Chicago Center
Fri 07:47:28 PM 42.9836 -88.5650 269° West 434 499 31,400 1,452 Climbing Chicago Center
Fri 07:48:30 PM 42.9825 -88.7275 270° West 427 491 33,100 1,597 Climbing Chicago Center
Fri 07:49:32 PM 42.9814 -88.9114 270° West 415 478 34,700 1,403 Climbing Chicago Center
Fri 07:50:34 PM 42.9800 -89.0639 269° West 403 464 36,000 624 Climbing Chicago Center
Fri 07:51:37 PM 42.9781 -89.2117 269° West 391 450 36,000  Level Chicago Center
Fri 07:52:39 PM 42.9758 -89.3600 269° West 389 448 36,000  Level Chicago Center
Fri 07:53:41 PM 42.9739 -89.5083 269° West 390 449 36,000  Level Chicago Center
Fri 07:54:43 PM 42.9719 -89.6564 269° West 389 448 36,000  Level Chicago Center
Fri 07:55:45 PM 42.9686 -89.8303 269° West 391 450 36,000  Level Chicago Center
Fri 07:56:47 PM 42.9653 -89.9847 268° West 395 455 36,000  Level Chicago Center
Fri 07:57:49 PM 42.9633 -90.1331 269° West 396 456 36,000  Level Chicago Center
Fri 07:58:51 PM 42.9614 -90.2831 269° West 399 459 36,000  Level Chicago Center
Fri 07:59:53 PM 42.9589 -90.4356 269° West 404 465 36,000  Level Chicago Center
Fri 08:00:55 PM 42.9544 -90.5856 268° West 401 461 36,000  Level Chicago Center
Fri 08:01:57 PM 42.9481 -90.7675 267° West 405 466 36,000  Level Chicago Center
Fri 08:02:59 PM 42.9458 -90.9167 269° West 400 460 36,000  Level Chicago Center
Fri 08:04:01 PM 42.9408 -91.0675 267° West 402 463 36,000  Level Chicago Center
Fri 08:05:03 PM 42.9372 -91.2167 268° West 399 459 36,000  Level Chicago Center
Fri 08:06:05 PM 42.9342 -91.3647 268° West 397 457 36,000  Level Chicago Center
Fri 08:06:53 PM 42.9542 -91.5072 281° West 395 455 36,000  Level Minneapolis Center
Fri 08:07:55 PM 42.9767 -91.6514 282° West 398 458 36,000  Level Minneapolis Center
Fri 08:08:57 PM 42.9958 -91.7939 280° West 393 452 36,000  Level Minneapolis Center
Fri 08:09:59 PM 43.0178 -91.9383 282° West 394 453 36,000  Level Minneapolis Center
Fri 08:11:01 PM 43.0436 -92.1136 281° West 398 458 36,000  Level Minneapolis Center
Fri 08:12:03 PM 43.0656 -92.2603 282° West 398 458 36,000  Level Minneapolis Center
Fri 08:13:05 PM 43.0883 -92.4083 282° West 403 464 36,000  Level Minneapolis Center
Fri 08:14:18 PM 43.1103 -92.5603 281° West 409 471 36,000  Level Minneapolis Center
Fri 08:15:33 PM 43.1364 -92.7406 281° West 407 468 36,000  Level Minneapolis Center
Fri 08:16:35 PM 43.1675 -92.9522 281° West 408 470 36,000  Level Minneapolis Center
Fri 08:17:37 PM 43.1894 -93.1033 281° West 408 470 36,000  Level Minneapolis Center
Fri 08:18:39 PM 43.2100 -93.2550 281° West 410 472 36,000  Level Minneapolis Center
Fri 08:19:41 PM 43.2317 -93.4075 281° West 410 472 36,000  Level Minneapolis Center
Fri 08:20:43 PM 43.2531 -93.5619 281° West 415 478 36,000  Level Minneapolis Center
Fri 08:21:45 PM 43.2786 -93.7461 281° West 415 478 36,000  Level Minneapolis Center
Fri 08:22:46 PM 43.2947 -93.8697 280° West 417 480 36,000  Level Minneapolis Center
Fri 08:23:48 PM 43.3206 -94.0519 281° West 411 473 36,000  Level Minneapolis Center
Fri 08:24:50 PM 43.3392 -94.2058 279° West 411 473 36,000  Level Minneapolis Center
Fri 08:25:52 PM 43.3619 -94.3678 281° West 408 470 36,000  Level Minneapolis Center
Fri 08:26:54 PM 43.3819 -94.5233 280° West 412 474 36,000  Level Minneapolis Center
Fri 08:27:56 PM 43.4022 -94.6794 280° West 417 480 36,000  Level Minneapolis Center
Fri 08:28:58 PM 43.4256 -94.8650 280° West 413 475 36,000  Level Minneapolis Center
Fri 08:30:00 PM 43.4447 -95.0161 280° West 405 466 36,000  Level Minneapolis Center
Fri 08:31:02 PM 43.4642 -95.1697 280° West 405 466 36,000  Level Minneapolis Center
Fri 08:32:04 PM 43.4825 -95.3217 279° West 404 465 36,000  Level Minneapolis Center
Fri 08:33:06 PM 43.4967 -95.4431 279° West 403 464 36,000  Level Minneapolis Center
Fri 08:34:08 PM 43.5053 -95.6272 274° West 408 470 36,000  Level Minneapolis Center
Fri 08:35:10 PM 43.4639 -95.7603 247° West 384 442 36,000  Level Minneapolis Center
Fri 08:36:12 PM 43.4131 -95.9197 246° West 379 436 36,000  Level Minneapolis Center
Fri 08:37:14 PM 43.3697 -96.0522 246° West 380 437 36,000  Level Minneapolis Center
Fri 08:38:16 PM 43.3267 -96.1842 246° West 378 435 36,000  Level Minneapolis Center
Fri 08:39:18 PM 43.2836 -96.3169 246° West 379 436 36,000  Level Minneapolis Center
Fri 08:40:21 PM 43.2403 -96.4475 246° West 377 434 36,000  Level Minneapolis Center
Fri 08:41:23 PM 43.2028 -96.5806 249° West 375 432 36,000  Level Minneapolis Center
Fri 08:42:25 PM 43.1619 -96.7425 251° West 375 432 36,000  Level Minneapolis Center
Fri 08:43:27 PM 43.1264 -96.8750 250° West 372 428 36,000  Level Minneapolis Center
Fri 08:44:29 PM 43.0914 -97.0097 250° West 375 432 36,000  Level Minneapolis Center
Fri 08:45:31 PM 43.0558 -97.1444 250° West 377 434 36,000  Level Minneapolis Center
Fri 08:46:33 PM 43.0194 -97.2822 250° West 385 443 36,000  Level Minneapolis Center
Fri 08:47:35 PM 42.9825 -97.4197 250° West 386 444 36,000  Level Minneapolis Center
Fri 08:48:37 PM 42.9375 -97.5867 250° West 389 448 36,000  Level Minneapolis Center
Fri 08:49:39 PM 42.9003 -97.7267 250° West 393 452 36,000  Level Minneapolis Center
Fri 08:50:41 PM 42.8619 -97.8664 250° West 394 453 36,000  Level Minneapolis Center
Fri 08:51:44 PM 42.8225 -98.0069 249° West 396 456 36,000  Level Minneapolis Center
Fri 08:52:46 PM 42.7836 -98.1492 250° West 399 459 36,000  Level Minneapolis Center
Fri 08:53:48 PM 42.7403 -98.3136 250° West 405 466 36,000  Level Minneapolis Center
Fri 08:54:50 PM 42.7000 -98.4564 249° West 405 466 36,000  Level Minneapolis Center
Fri 08:55:52 PM 42.6611 -98.5967 249° West 400 460 36,000  Level Minneapolis Center
Fri 08:56:54 PM 42.6203 -98.7422 249° West 409 471 36,000  Level Minneapolis Center
Fri 08:57:56 PM 42.5794 -98.8872 249° West 412 474 36,000  Level Minneapolis Center
Fri 08:58:58 PM 42.5306 -99.0603 249° West 411 473 36,000  Level Minneapolis Center
Fri 09:00:00 PM 42.4886 -99.2036 248° West 410 472 36,000  Level Minneapolis Center
Fri 09:01:05 PM 42.4475 -99.3461 249° West 408 470 36,000  Level Minneapolis Center
Fri 09:01:35 PM 42.4231 -99.4306 249° West 406 467 36,000  Level Denver Center
Fri 09:02:36 PM 42.3814 -99.5728 248° West 407 468 36,000  Level Denver Center
Fri 09:03:09 PM 42.3575 -99.6578 249° West 407 468 36,000  Level Minneapolis Center
Fri 09:04:11 PM 42.3175 -99.7942 248° West 396 456 36,000  Level Minneapolis Center
Fri 09:05:13 PM 42.2778 -99.9303 249° West 392 451 36,000  Level Minneapolis Center
Fri 09:05:41 PM 42.2589 -99.9944 248° West 391 450 36,000  Level Denver Center
Fri 09:06:43 PM 42.2194 -100.1250 248° West 392 451 36,000  Level Denver Center
Fri 09:07:17 PM 42.2050 -100.1767 249° West 393 452 36,000  Level Minneapolis Center
Fri 09:08:20 PM 42.1550 -100.3400 248° West 394 453 36,000  Level Minneapolis Center
Fri 09:08:46 PM 42.1342 -100.4081 248° West 396 456 36,000 -545 Level Denver Center
Fri 09:09:48 PM 42.0894 -100.5592 248° West 391 450 35,200 -1,171 Descending Denver Center
Fri 09:10:49 PM 42.0519 -100.6825 248° West 378 435 33,600 -1,366 Descending Denver Center
Fri 09:11:51 PM 42.0078 -100.8269 248° West 377 434 32,400 -774 Descending Denver Center
Fri 09:12:53 PM 41.9694 -100.9517 248° West 378 435 32,000 -195 Descending Denver Center
Fri 09:13:54 PM 41.9317 -101.0764 248° West 379 436 32,000  Level Denver Center
Fri 09:14:56 PM 41.8842 -101.2283 247° West 395 455 32,000  Level Denver Center
Fri 09:15:58 PM 41.8444 -101.3594 248° West 398 458 32,000  Level Denver Center
Fri 09:16:59 PM 41.7881 -101.5067 243° Southwest 398 458 32,000  Level Denver Center
Fri 09:18:01 PM 41.7328 -101.6253 238° Southwest 394 453 32,000  Level Denver Center
Fri 09:19:03 PM 41.6697 -101.7658 239° Southwest 395 455 32,000  Level Denver Center
Fri 09:20:04 PM 41.6178 -101.8847 240° Southwest 390 449 32,000  Level Denver Center
Fri 09:21:06 PM 41.5561 -102.0247 240° Southwest 391 450 32,000  Level Denver Center
Fri 09:22:08 PM 41.5031 -102.1444 239° Southwest 393 452 32,000  Level Denver Center
Fri 09:23:10 PM 41.4494 -102.2658 240° Southwest 397 457 32,000  Level Denver Center
Fri 09:24:11 PM 41.3886 -102.4072 240° Southwest 396 456 32,000  Level Denver Center
Fri 09:25:13 PM 41.3364 -102.5278 240° Southwest 395 455 32,000  Level Denver Center
Fri 09:26:15 PM 41.2806 -102.6631 241° Southwest 396 456 32,000  Level Denver Center
Fri 09:27:16 PM 41.2247 -102.7950 241° Southwest 401 461 32,000  Level Denver Center
Fri 09:28:18 PM 41.1644 -102.9428 242° Southwest 406 467 32,000  Level Denver Center
Fri 09:29:20 PM 41.1164 -103.0628 242° Southwest 409 471 32,000  Level Denver Center
Fri 09:30:21 PM 41.0606 -103.2142 244° Southwest 409 471 32,000  Level Denver Center
Fri 09:31:23 PM 41.0192 -103.3469 248° West 409 471 32,000  Level Denver Center
Fri 09:32:25 PM 40.9731 -103.4903 247° West 407 468 32,000  Level Denver Center
Fri 09:33:26 PM 40.9292 -103.6269 247° West 405 466 32,000  Level Denver Center
Fri 09:34:28 PM 40.8853 -103.7639 247° West 407 468 32,000  Level Denver Center
Fri 09:35:30 PM 40.8358 -103.8969 244° Southwest 406 467 32,000  Level Denver Center
Fri 09:36:31 PM 40.7728 -104.0514 242° Southwest 401 461 32,000  Level Denver Center
Fri 09:37:33 PM 40.7144 -104.1781 239° Southwest 409 471 32,000  Level Denver Center
Fri 09:38:35 PM 40.6586 -104.3033 240° Southwest 399 459 32,000  Level Denver Center
Fri 09:39:37 PM 40.6028 -104.4283 240° Southwest 398 458 32,000  Level Denver Center
Fri 09:40:38 PM 40.5453 -104.5519 239° Southwest 398 458 32,000  Level Denver Center
Fri 09:41:40 PM 40.4881 -104.6775 239° Southwest 400 460 32,000  Level Denver Center
Fri 09:42:42 PM 40.4233 -104.8300 241° Southwest 400 460 32,000  Level Denver Center
Fri 09:43:44 PM 40.3692 -104.9553 240° Southwest 399 459 32,000  Level Denver Center
Fri 09:44:45 PM 40.3239 -105.0883 246° West 401 461 32,000  Level Denver Center
Fri 09:45:47 PM 40.2808 -105.2231 247° West 404 465 32,000  Level Denver Center
Fri 09:46:49 PM 40.2364 -105.3592 247° West 409 471 32,000  Level Denver Center
Fri 09:47:51 PM 40.1928 -105.4925 247° West 404 465 32,000  Level Denver Center
Fri 09:48:53 PM 40.1208 -105.6372 237° Southwest 404 465 32,000 293 Level Denver Center
Fri 09:49:54 PM 40.0492 -105.7489 230° Southwest 403 464 32,600 878 Climbing Denver Center
Fri 09:50:56 PM 39.9944 -105.8794 241° Southwest 413 475 33,800 1,258 Climbing Denver Center
Fri 09:51:58 PM 39.9433 -106.0119 243° Southwest 411 473 35,200 1,306 Climbing Denver Center
Fri 09:53:00 PM 39.8919 -106.1422 243° Southwest 406 467 36,500 1,073 Climbing Denver Center
Fri 09:54:01 PM 39.8417 -106.2714 243° Southwest 402 463 37,400 732 Climbing Denver Center
Fri 09:55:03 PM 39.7819 -106.4253 243° Southwest 399 459 38,000 290 Climbing Denver Center
Fri 09:56:05 PM 39.7353 -106.5475 244° Southwest 397 457 38,000  Level Denver Center
Fri 09:57:07 PM 39.6789 -106.6894 243° Southwest 400 460 38,000  Level Denver Center
Fri 09:58:08 PM 39.6294 -106.8156 243° Southwest 408 470 38,000  Level Denver Center
Fri 09:59:10 PM 39.5697 -106.9600 242° Southwest 408 470 38,000  Level Denver Center
Fri 10:00:12 PM 39.5214 -107.0828 243° Southwest 403 464 38,000  Level Denver Center
Fri 10:01:14 PM 39.4728 -107.2047 243° Southwest 398 458 38,000  Level Denver Center
Fri 10:02:15 PM 39.4144 -107.3500 243° Southwest 404 465 38,000  Level Denver Center
Fri 10:03:17 PM 39.3650 -107.4736 243° Southwest 405 466 38,000  Level Denver Center
Fri 10:04:19 PM 39.3072 -107.6164 242° Southwest 402 463 38,000  Level Denver Center
Fri 10:05:21 PM 39.2572 -107.7400 242° Southwest 401 461 38,000  Level Denver Center
Fri 10:06:22 PM 39.2061 -107.8642 242° Southwest 406 467 38,000  Level Denver Center
Fri 10:07:24 PM 39.1469 -108.0083 242° Southwest 406 467 38,000  Level Denver Center
Fri 10:08:25 PM 39.0969 -108.1300 242° Southwest 402 463 38,000  Level Denver Center
Fri 10:09:27 PM 39.0378 -108.2703 242° Southwest 399 459 38,000  Level Denver Center
Fri 10:10:29 PM 38.9858 -108.3950 242° Southwest 408 470 38,000  Level Denver Center
Fri 10:11:30 PM 38.9342 -108.5169 241° Southwest 406 467 38,000  Level Denver Center
Fri 10:12:32 PM 38.8758 -108.6592 242° Southwest 401 461 38,000  Level Denver Center
Fri 10:13:34 PM 38.8253 -108.7806 242° Southwest 403 464 38,000  Level Denver Center
Fri 10:14:35 PM 38.7653 -108.9203 241° Southwest 400 460 38,000  Level Denver Center
Fri 10:15:37 PM 38.7150 -109.0394 242° Southwest 398 458 38,000  Level Denver Center
Fri 10:16:39 PM 38.6556 -109.1775 241° Southwest 396 456 38,000  Level Denver Center
Fri 10:17:40 PM 38.6142 -109.2756 242° Southwest 393 452 38,000  Level Denver Center
Fri 10:18:42 PM 38.5544 -109.4142 241° Southwest 397 457 38,000  Level Denver Center
Fri 10:19:44 PM 38.4942 -109.5536 241° Southwest 400 460 38,000  Level Denver Center
Fri 10:20:45 PM 38.4431 -109.6703 241° Southwest 393 452 38,000  Level Denver Center
Fri 10:21:47 PM 38.3839 -109.8069 241° Southwest 394 453 38,000  Level Denver Center
Fri 10:23:01 PM 38.3306 -109.9261 240° Southwest 401 461 38,000  Level Denver Center
Fri 10:24:03 PM 38.2603 -110.0864 241° Southwest 405 466 38,000  Level Denver Center
Fri 10:25:04 PM 38.2069 -110.2081 241° Southwest 409 471 38,000  Level Denver Center
Fri 10:26:06 PM 38.1444 -110.3497 241° Southwest 411 473 38,000  Level Denver Center
Fri 10:27:08 PM 38.0917 -110.4686 241° Southwest 406 467 38,000  Level Denver Center
Fri 10:28:09 PM 38.0392 -110.5853 240° Southwest 399 459 38,000  Level Denver Center
Fri 10:29:11 PM 37.9850 -110.7078 241° Southwest 402 463 38,000  Level Denver Center
Fri 10:30:13 PM 37.9189 -110.8553 240° Southwest 402 463 38,000  Level Denver Center
Fri 10:31:14 PM 37.8633 -110.9764 240° Southwest 400 460 38,000  Level Denver Center
Fri 10:32:16 PM 37.8086 -111.0986 240° Southwest 399 459 38,000  Level Denver Center
Fri 10:33:14 PM 37.7525 -111.2211 240° Southwest 402 463 38,000  Level Salt Lake Center
Fri 10:34:16 PM 37.6983 -111.3433 241° Southwest 400 460 38,000  Level Salt Lake Center
Fri 10:35:17 PM 37.6417 -111.4653 240° Southwest 402 463 38,000  Level Salt Lake Center
Fri 10:36:19 PM 37.5847 -111.5875 240° Southwest 403 464 38,000  Level Salt Lake Center
Fri 10:37:21 PM 37.5286 -111.7086 240° Southwest 401 461 38,000  Level Salt Lake Center
Fri 10:38:22 PM 37.4731 -111.8281 240° Southwest 397 457 38,000  Level Salt Lake Center
Fri 10:39:24 PM 37.4183 -111.9475 240° Southwest 394 453 38,000  Level Salt Lake Center
Fri 10:40:24 PM 37.3728 -112.0406 238° Southwest 393 452 38,000  Level Los Angeles Center
Fri 10:41:26 PM 37.3067 -112.1814 239° Southwest 389 448 38,000  Level Los Angeles Center
Fri 10:42:28 PM 37.2408 -112.3211 239° Southwest 388 447 38,000  Level Los Angeles Center
Fri 10:43:30 PM 37.1831 -112.4414 239° Southwest 398 458 38,000  Level Los Angeles Center
Fri 10:44:32 PM 37.1283 -112.5606 240° Southwest 394 453 38,000  Level Los Angeles Center
Fri 10:45:34 PM 37.0711 -112.6794 239° Southwest 396 456 38,000  Level Los Angeles Center
Fri 10:46:35 PM 37.0253 -112.7744 239° Southwest 396 456 38,000  Level Los Angeles Center
Fri 10:47:38 PM 36.9575 -112.9167 239° Southwest 395 455 38,000  Level Los Angeles Center
Fri 10:48:39 PM 36.8947 -113.0286 235° Southwest 393 452 38,000  Level Los Angeles Center
Fri 10:49:41 PM 36.8161 -113.1614 234° Southwest 394 453 38,000  Level Los Angeles Center
Fri 10:50:43 PM 36.7508 -113.2719 234° Southwest 395 455 38,000  Level Los Angeles Center
Fri 10:51:45 PM 36.6881 -113.3811 234° Southwest 389 448 38,000  Level Los Angeles Center
Fri 10:52:47 PM 36.6233 -113.4914 234° Southwest 392 451 38,000  Level Los Angeles Center
Fri 10:53:49 PM 36.5594 -113.6011 234° Southwest 392 451 38,000  Level Los Angeles Center
Fri 10:54:50 PM 36.4883 -113.7200 233° Southwest 390 449 38,000  Level Los Angeles Center
Fri 10:55:52 PM 36.4242 -113.8281 234° Southwest 389 448 38,000  Level Los Angeles Center
Fri 10:56:54 PM 36.3572 -113.9378 233° Southwest 394 453 38,000  Level Los Angeles Center
Fri 10:57:57 PM 36.2919 -114.0486 234° Southwest 396 456 38,000  Level Los Angeles Center
Fri 10:59:10 PM 36.2272 -114.1572 234° Southwest 394 453 38,000  Level Los Angeles Center
Fri 11:00:12 PM 36.1356 -114.3111 234° Southwest 395 455 38,000  Level Los Angeles Center
Fri 11:01:14 PM 36.0706 -114.4194 233° Southwest 392 451 38,000  Level Los Angeles Center
Fri 11:02:16 PM 36.0053 -114.5269 233° Southwest 391 450 38,000  Level Los Angeles Center
Fri 11:03:18 PM 35.9386 -114.6342 232° Southwest 390 449 38,000  Level Los Angeles Center
Fri 11:04:19 PM 35.8739 -114.7433 234° Southwest 392 451 38,000  Level Los Angeles Center
Fri 11:05:21 PM 35.8083 -114.8494 233° Southwest 389 448 38,000  Level Los Angeles Center
Fri 11:06:23 PM 35.7422 -114.9558 233° Southwest 389 448 38,000  Level Los Angeles Center
Fri 11:07:25 PM 35.6781 -115.0636 234° Southwest 389 448 38,000  Level Los Angeles Center
Fri 11:08:27 PM 35.5878 -115.1767 226° Southwest 401 461 38,000  Level Los Angeles Center
Fri 11:09:29 PM 35.4833 -115.2197 199° South 399 459 38,000  Level Los Angeles Center
Fri 11:10:30 PM 35.4003 -115.2525 198° South 394 453 38,000  Level Los Angeles Center
Fri 11:11:32 PM 35.3031 -115.3467 218° Southwest 372 428 38,000  Level Los Angeles Center
Fri 11:12:34 PM 35.2364 -115.4492 231° Southwest 379 436 38,000  Level Los Angeles Center
Fri 11:13:36 PM 35.1672 -115.5536 231° Southwest 379 436 38,000  Level Los Angeles Center
Fri 11:14:38 PM 35.1003 -115.6531 231° Southwest 379 436 38,000  Level Los Angeles Center
Fri 11:15:40 PM 35.0339 -115.7536 231° Southwest 380 437 38,000 -290 Level Los Angeles Center
Fri 11:16:42 PM 34.9664 -115.8525 230° Southwest 380 437 37,400 -683 Descending Los Angeles Center
Fri 11:17:43 PM 34.9133 -115.9317 231° Southwest 378 435 36,600 -1,065 Descending Los Angeles Center
Fri 11:18:46 PM 34.8183 -116.0725 231° Southwest 383 441 35,200 -1,104 Descending Los Angeles Center
Fri 11:19:48 PM 34.7486 -116.1750 230° Southwest 389 448 34,300 -927 Descending Los Angeles Center
Fri 11:20:49 PM 34.6786 -116.2783 231° Southwest 393 452 33,300 -927 Descending Los Angeles Center
Fri 11:21:51 PM 34.6067 -116.3825 230° Southwest 400 460 32,400 -968 Descending Los Angeles Center
Fri 11:22:53 PM 34.5369 -116.4856 231° Southwest 395 455 31,300 -1,015 Descending Los Angeles Center
Fri 11:24:07 PM 34.4672 -116.5881 230° Southwest 394 453 30,100 -1,839 Descending Los Angeles Center
Fri 11:25:10 PM 34.3708 -116.7267 230° Southwest 383 441 27,100 -2,468 Descending Los Angeles Center
Fri 11:26:11 PM 34.3050 -116.8231 230° Southwest 373 429 25,000 -2,000 Descending Los Angeles Center
Fri 11:27:13 PM 34.2386 -116.9169 229° Southwest 367 422 23,000 -1,887 Descending Los Angeles Center
Fri 11:28:15 PM 34.1764 -117.0086 231° Southwest 355 409 21,100 -1,935 Descending Los Angeles Center
Fri 11:29:17 PM 34.1094 -117.1061 230° Southwest 343 395 19,000 -1,976 Descending Los Angeles Center
Fri 11:29:37 PM 34.1000 -117.1500 255° West 337 388 18,400 -1,800 Descending Southern California TRACON
Fri 11:30:37 PM 34.0500 -117.2333 234° Southwest 326 375 16,600 -1,550 Descending Southern California TRACON
Fri 11:31:37 PM 34.0333 -117.3500 260° West 313 360 15,300 -1,350 Descending Southern California TRACON
Fri 11:32:37 PM 34.0333 -117.4500 270° West 296 341 13,900 -1,400 Descending Southern California TRACON
Fri 11:33:37 PM 34.0333 -117.5500 270° West 278 320 12,500 -1,400 Descending Southern California TRACON
Fri 11:34:37 PM 34.0333 -117.6333 270° West 293 337 11,100 -1,350 Descending Southern California TRACON
Fri 11:35:37 PM 34.0167 -117.7333 259° West 274 315 9,800 -1,100 Descending Southern California TRACON
Fri 11:36:37 PM 34.0167 -117.8333 270° West 266 306 8,900 -750 Descending Southern California TRACON
Fri 11:37:37 PM 34.0000 -117.9000 253° West 231 266 8,300 -750 Descending Southern California TRACON
Fri 11:38:37 PM 34.0000 -117.9833 270° West 219 252 7,400 -1,050 Descending Southern California TRACON
Fri 11:39:37 PM 33.9833 -118.0500 253° West 192 221 6,200 -1,150 Descending Southern California TRACON
Fri 11:40:37 PM 33.9833 -118.1167 270° West 191 220 5,100 -1,100 Descending Southern California TRACON
Fri 11:41:37 PM 33.9667 -118.1667 248° West 185 213 4,000 -960 Descending Southern California TRACON
Fri 11:41:52 PM 33.9756 -118.1736 327° Northwest 186 214 3,900 -1,013 Descending Los Angeles Center
Fri 11:42:54 PM 33.9689 -118.2456 264° West 182 209 2,700 -1,024 Descending Los Angeles Center
Fri 11:43:55 PM 33.9619 -118.3053 262° West 182 209 1,800 -829 Descending Los Angeles Center
Fri 11:44:57 PM 33.9572 -118.3581 264° West 172 198 1,000 -774 Descending Los Angeles Center
Fri 11:45:59 PM 33.9528 -118.4039 263° West 153 176 200 -774 Descending Los Angeles Center
Fri 11:47:00 PM 33.9425 -118.4081 259° West  Level Estimated
Fri 11:54:00 PM 33.9425 -118.4081 259° West  Level Estimated

Login

Don't have an account? Register now (free) for customized features, flight alerts, and more!